sensor_id;sensor_type;location;lat;lon;timestamp;temperature;humidity
39503;DHT22;26970;49.900;10.774;2023-04-26T00:00:15;4.60;99.90
39503;DHT22;26970;49.900;10.774;2023-04-26T00:02:40;4.60;99.90
39503;DHT22;26970;49.900;10.774;2023-04-26T00:05:06;4.50;99.90
39503;DHT22;26970;49.900;10.774;2023-04-26T00:07:34;4.50;99.90
39503;DHT22;26970;49.900;10.774;2023-04-26T00:10:00;4.50;99.90
39503;DHT22;26970;49.900;10.774;2023-04-26T00:12:26;4.50;99.90
39503;DHT22;26970;49.900;10.774;2023-04-26T00:14:52;4.50;99.90
39503;DHT22;26970;49.900;10.774;2023-04-26T00:17:17;4.40;99.90
39503;DHT22;26970;49.900;10.774;2023-04-26T00:19:43;4.30;99.90
39503;DHT22;26970;49.900;10.774;2023-04-26T00:22:09;4.30;99.90
39503;DHT22;26970;49.900;10.774;2023-04-26T00:24:35;4.20;99.90
39503;DHT22;26970;49.900;10.774;2023-04-26T00:27:00;4.20;99.90
39503;DHT22;26970;49.900;10.774;2023-04-26T00:29:29;4.10;99.90
39503;DHT22;26970;49.900;10.774;2023-04-26T00:31:55;4.20;99.90
39503;DHT22;26970;49.900;10.774;2023-04-26T00:34:21;4.20;99.90
39503;DHT22;26970;49.900;10.774;2023-04-26T00:36:47;4.20;99.90
39503;DHT22;26970;49.900;10.774;2023-04-26T00:39:13;4.20;99.90
39503;DHT22;26970;49.900;10.774;2023-04-26T00:41:38;4.20;99.90
39503;DHT22;26970;49.900;10.774;2023-04-26T00:44:04;4.30;99.90
39503;DHT22;26970;49.900;10.774;2023-04-26T00:46:29;4.20;99.90
39503;DHT22;26970;49.900;10.774;2023-04-26T00:48:55;4.20;99.90
39503;DHT22;26970;49.900;10.774;2023-04-26T00:51:21;4.20;99.90
39503;DHT22;26970;49.900;10.774;2023-04-26T00:53:47;4.30;99.90
39503;DHT22;26970;49.900;10.774;2023-04-26T00:56:15;4.30;99.90
39503;DHT22;26970;49.900;10.774;2023-04-26T00:58:41;4.30;99.90
39503;DHT22;26970;49.900;10.774;2023-04-26T01:01:06;4.30;99.90
39503;DHT22;26970;49.900;10.774;2023-04-26T01:03:32;4.30;99.90
39503;DHT22;26970;49.900;10.774;2023-04-26T01:05:57;4.30;99.90
39503;DHT22;26970;49.900;10.774;2023-04-26T01:08:23;4.30;99.90
39503;DHT22;26970;49.900;10.774;2023-04-26T01:10:49;4.20;99.90
39503;DHT22;26970;49.900;10.774;2023-04-26T01:13:16;4.20;99.90
39503;DHT22;26970;49.900;10.774;2023-04-26T01:15:45;4.30;99.90
39503;DHT22;26970;49.900;10.774;2023-04-26T01:18:11;4.20;99.90
39503;DHT22;26970;49.900;10.774;2023-04-26T01:20:38;4.20;99.90
39503;DHT22;26970;49.900;10.774;2023-04-26T01:23:04;4.10;99.90
39503;DHT22;26970;49.900;10.774;2023-04-26T01:25:30;4.10;99.90
39503;DHT22;26970;49.900;10.774;2023-04-26T01:27:56;4.10;99.90
39503;DHT22;26970;49.900;10.774;2023-04-26T01:30:21;4.10;99.90
39503;DHT22;26970;49.900;10.774;2023-04-26T01:32:47;4.10;99.90
39503;DHT22;26970;49.900;10.774;2023-04-26T01:35:13;4.10;99.90
39503;DHT22;26970;49.900;10.774;2023-04-26T01:37:38;4.10;99.90
39503;DHT22;26970;49.900;10.774;2023-04-26T01:40:04;4.10;99.90
39503;DHT22;26970;49.900;10.774;2023-04-26T01:42:32;4.10;99.90
39503;DHT22;26970;49.900;10.774;2023-04-26T01:44:58;4.00;99.90
39503;DHT22;26970;49.900;10.774;2023-04-26T01:47:24;4.00;99.90
39503;DHT22;26970;49.900;10.774;2023-04-26T01:49:51;4.00;99.90
39503;DHT22;26970;49.900;10.774;2023-04-26T01:52:17;4.00;99.90
39503;DHT22;26970;49.900;10.774;2023-04-26T01:54:42;4.10;99.90
39503;DHT22;26970;49.900;10.774;2023-04-26T01:57:08;4.10;99.90
39503;DHT22;26970;49.900;10.774;2023-04-26T01:59:33;4.10;99.90
39503;DHT22;26970;49.900;10.774;2023-04-26T02:01:59;4.00;99.90
39503;DHT22;26970;49.900;10.774;2023-04-26T02:04:25;4.00;99.90
39503;DHT22;26970;49.900;10.774;2023-04-26T02:06:51;4.00;99.90
39503;DHT22;26970;49.900;10.774;2023-04-26T02:09:16;4.00;99.90
39503;DHT22;26970;49.900;10.774;2023-04-26T02:11:42;4.00;99.90
39503;DHT22;26970;49.900;10.774;2023-04-26T02:14:08;4.00;99.90
39503;DHT22;26970;49.900;10.774;2023-04-26T02:16:33;4.10;99.90
39503;DHT22;26970;49.900;10.774;2023-04-26T02:18:59;4.10;99.90
39503;DHT22;26970;49.900;10.774;2023-04-26T02:21:25;4.00;99.90
39503;DHT22;26970;49.900;10.774;2023-04-26T02:23:52;3.90;99.90
39503;DHT22;26970;49.900;10.774;2023-04-26T02:26:18;3.90;99.90
39503;DHT22;26970;49.900;10.774;2023-04-26T02:28:43;3.90;99.90
39503;DHT22;26970;49.900;10.774;2023-04-26T02:31:09;3.90;99.90
39503;DHT22;26970;49.900;10.774;2023-04-26T02:33:35;3.80;99.90
39503;DHT22;26970;49.900;10.774;2023-04-26T02:36:04;3.80;99.90
39503;DHT22;26970;49.900;10.774;2023-04-26T02:38:34;3.80;99.90
39503;DHT22;26970;49.900;10.774;2023-04-26T02:41:01;3.80;99.90
39503;DHT22;26970;49.900;10.774;2023-04-26T02:43:27;3.70;99.90
39503;DHT22;26970;49.900;10.774;2023-04-26T02:45:53;3.70;99.90
39503;DHT22;26970;49.900;10.774;2023-04-26T02:48:18;3.70;99.90
39503;DHT22;26970;49.900;10.774;2023-04-26T02:50:45;3.70;99.90
39503;DHT22;26970;49.900;10.774;2023-04-26T02:53:11;3.60;99.90
39503;DHT22;26970;49.900;10.774;2023-04-26T02:55:38;3.60;99.90
39503;DHT22;26970;49.900;10.774;2023-04-26T02:58:04;3.60;99.90
39503;DHT22;26970;49.900;10.774;2023-04-26T03:00:29;3.60;99.90
39503;DHT22;26970;49.900;10.774;2023-04-26T03:02:55;3.60;99.90
39503;DHT22;26970;49.900;10.774;2023-04-26T03:05:21;3.60;99.90
39503;DHT22;26970;49.900;10.774;2023-04-26T03:07:47;3.50;99.90
39503;DHT22;26970;49.900;10.774;2023-04-26T03:10:12;3.50;99.90
39503;DHT22;26970;49.900;10.774;2023-04-26T03:12:38;3.50;99.90
39503;DHT22;26970;49.900;10.774;2023-04-26T03:15:04;3.50;99.90
39503;DHT22;26970;49.900;10.774;2023-04-26T03:17:30;3.50;99.90
39503;DHT22;26970;49.900;10.774;2023-04-26T03:19:55;3.50;99.90
39503;DHT22;26970;49.900;10.774;2023-04-26T03:22:21;3.50;99.90
39503;DHT22;26970;49.900;10.774;2023-04-26T03:24:48;3.40;99.90
39503;DHT22;26970;49.900;10.774;2023-04-26T03:27:13;3.50;99.90
39503;DHT22;26970;49.900;10.774;2023-04-26T03:29:39;3.40;99.90
39503;DHT22;26970;49.900;10.774;2023-04-26T03:32:05;3.40;99.90
39503;DHT22;26970;49.900;10.774;2023-04-26T03:34:31;3.30;99.90
39503;DHT22;26970;49.900;10.774;2023-04-26T03:36:57;3.20;99.90
39503;DHT22;26970;49.900;10.774;2023-04-26T03:39:22;3.20;99.90
39503;DHT22;26970;49.900;10.774;2023-04-26T03:41:48;3.10;99.90
39503;DHT22;26970;49.900;10.774;2023-04-26T03:44:13;3.00;99.90
39503;DHT22;26970;49.900;10.774;2023-04-26T03:46:39;3.10;99.90
39503;DHT22;26970;49.900;10.774;2023-04-26T03:49:05;3.00;99.90
39503;DHT22;26970;49.900;10.774;2023-04-26T03:51:31;3.00;99.90
39503;DHT22;26970;49.900;10.774;2023-04-26T03:53:58;3.00;99.90
39503;DHT22;26970;49.900;10.774;2023-04-26T03:56:23;3.00;99.90
39503;DHT22;26970;49.900;10.774;2023-04-26T03:58:49;2.90;99.90
39503;DHT22;26970;49.900;10.774;2023-04-26T04:01:15;2.90;99.90
39503;DHT22;26970;49.900;10.774;2023-04-26T04:03:40;2.80;99.90
39503;DHT22;26970;49.900;10.774;2023-04-26T04:06:06;2.90;99.90
39503;DHT22;26970;49.900;10.774;2023-04-26T04:08:32;2.80;99.90
39503;DHT22;26970;49.900;10.774;2023-04-26T04:10:58;2.80;99.90
39503;DHT22;26970;49.900;10.774;2023-04-26T04:13:23;2.90;99.90
39503;DHT22;26970;49.900;10.774;2023-04-26T04:15:50;2.90;99.90
39503;DHT22;26970;49.900;10.774;2023-04-26T04:18:15;2.90;99.90
39503;DHT22;26970;49.900;10.774;2023-04-26T04:20:41;2.90;99.90
39503;DHT22;26970;49.900;10.774;2023-04-26T04:23:06;2.90;99.90
39503;DHT22;26970;49.900;10.774;2023-04-26T04:25:35;2.90;99.90
39503;DHT22;26970;49.900;10.774;2023-04-26T04:28:02;2.80;99.90
39503;DHT22;26970;49.900;10.774;2023-04-26T04:30:28;2.90;99.90
39503;DHT22;26970;49.900;10.774;2023-04-26T04:32:54;2.90;99.90
39503;DHT22;26970;49.900;10.774;2023-04-26T04:35:22;3.00;99.90
39503;DHT22;26970;49.900;10.774;2023-04-26T04:37:52;3.10;99.90
39503;DHT22;26970;49.900;10.774;2023-04-26T04:40:18;3.40;99.90
39503;DHT22;26970;49.900;10.774;2023-04-26T04:42:43;3.70;99.90
39503;DHT22;26970;49.900;10.774;2023-04-26T04:45:09;3.90;99.90
39503;DHT22;26970;49.900;10.774;2023-04-26T04:47:35;4.10;99.90
39503;DHT22;26970;49.900;10.774;2023-04-26T04:50:04;4.30;99.90
39503;DHT22;26970;49.900;10.774;2023-04-26T04:52:30;4.50;99.90
39503;DHT22;26970;49.900;10.774;2023-04-26T04:54:57;4.70;99.90
39503;DHT22;26970;49.900;10.774;2023-04-26T04:57:23;4.90;99.90
39503;DHT22;26970;49.900;10.774;2023-04-26T04:59:49;5.20;99.90
39503;DHT22;26970;49.900;10.774;2023-04-26T05:02:14;5.40;99.90
39503;DHT22;26970;49.900;10.774;2023-04-26T05:04:40;5.50;99.90
39503;DHT22;26970;49.900;10.774;2023-04-26T05:07:05;5.50;99.90
39503;DHT22;26970;49.900;10.774;2023-04-26T05:09:31;5.80;99.90
39503;DHT22;26970;49.900;10.774;2023-04-26T05:11:56;5.70;99.90
39503;DHT22;26970;49.900;10.774;2023-04-26T05:14:22;5.70;99.90
39503;DHT22;26970;49.900;10.774;2023-04-26T05:16:48;5.80;99.90
39503;DHT22;26970;49.900;10.774;2023-04-26T05:19:13;5.90;99.90
39503;DHT22;26970;49.900;10.774;2023-04-26T05:21:39;5.90;99.90
39503;DHT22;26970;49.900;10.774;2023-04-26T05:24:05;5.80;99.90
39503;DHT22;26970;49.900;10.774;2023-04-26T05:26:30;5.70;99.90
39503;DHT22;26970;49.900;10.774;2023-04-26T05:28:56;5.70;99.90
39503;DHT22;26970;49.900;10.774;2023-04-26T05:31:21;5.60;99.90
39503;DHT22;26970;49.900;10.774;2023-04-26T05:33:47;5.70;99.90
39503;DHT22;26970;49.900;10.774;2023-04-26T05:36:13;5.80;99.90
39503;DHT22;26970;49.900;10.774;2023-04-26T05:38:38;6.00;99.90
39503;DHT22;26970;49.900;10.774;2023-04-26T05:41:04;6.20;99.90
39503;DHT22;26970;49.900;10.774;2023-04-26T05:43:29;6.30;99.90
39503;DHT22;26970;49.900;10.774;2023-04-26T05:45:56;6.30;99.90
39503;DHT22;26970;49.900;10.774;2023-04-26T05:48:23;6.20;99.90
39503;DHT22;26970;49.900;10.774;2023-04-26T05:50:50;6.20;99.90
39503;DHT22;26970;49.900;10.774;2023-04-26T05:53:16;6.20;99.90
39503;DHT22;26970;49.900;10.774;2023-04-26T05:55:42;6.20;99.90
39503;DHT22;26970;49.900;10.774;2023-04-26T05:58:09;6.20;99.90
39503;DHT22;26970;49.900;10.774;2023-04-26T06:00:34;6.40;99.90
39503;DHT22;26970;49.900;10.774;2023-04-26T06:03:00;6.40;99.90
39503;DHT22;26970;49.900;10.774;2023-04-26T06:05:26;6.30;99.90
39503;DHT22;26970;49.900;10.774;2023-04-26T06:07:52;6.20;99.90
39503;DHT22;26970;49.900;10.774;2023-04-26T06:10:18;6.30;99.90
39503;DHT22;26970;49.900;10.774;2023-04-26T06:12:43;6.40;99.90
39503;DHT22;26970;49.900;10.774;2023-04-26T06:15:09;6.30;99.90
39503;DHT22;26970;49.900;10.774;2023-04-26T06:17:35;6.30;99.90
39503;DHT22;26970;49.900;10.774;2023-04-26T06:20:01;6.20;99.90
39503;DHT22;26970;49.900;10.774;2023-04-26T06:22:27;6.30;99.90
39503;DHT22;26970;49.900;10.774;2023-04-26T06:24:52;6.30;99.90
39503;DHT22;26970;49.900;10.774;2023-04-26T06:27:18;6.40;99.90
39503;DHT22;26970;49.900;10.774;2023-04-26T06:29:44;6.60;99.90
39503;DHT22;26970;49.900;10.774;2023-04-26T06:32:09;6.40;99.90
39503;DHT22;26970;49.900;10.774;2023-04-26T06:34:35;6.40;99.90
39503;DHT22;26970;49.900;10.774;2023-04-26T06:37:03;6.50;99.90
39503;DHT22;26970;49.900;10.774;2023-04-26T06:39:28;6.50;99.90
39503;DHT22;26970;49.900;10.774;2023-04-26T06:41:54;6.60;99.90
39503;DHT22;26970;49.900;10.774;2023-04-26T06:44:20;6.60;99.90
39503;DHT22;26970;49.900;10.774;2023-04-26T06:46:46;6.80;99.90
39503;DHT22;26970;49.900;10.774;2023-04-26T06:49:11;6.80;99.90
39503;DHT22;26970;49.900;10.774;2023-04-26T06:51:37;6.60;99.90
39503;DHT22;26970;49.900;10.774;2023-04-26T06:54:03;6.70;99.90
39503;DHT22;26970;49.900;10.774;2023-04-26T06:56:29;6.80;99.90
39503;DHT22;26970;49.900;10.774;2023-04-26T06:59:02;6.70;99.90
39503;DHT22;26970;49.900;10.774;2023-04-26T07:01:28;6.70;99.90
39503;DHT22;26970;49.900;10.774;2023-04-26T07:03:57;6.70;99.90
39503;DHT22;26970;49.900;10.774;2023-04-26T07:06:25;6.90;99.90
39503;DHT22;26970;49.900;10.774;2023-04-26T07:08:50;6.80;99.90
39503;DHT22;26970;49.900;10.774;2023-04-26T07:11:16;6.80;99.90
39503;DHT22;26970;49.900;10.774;2023-04-26T07:13:42;6.80;99.90
39503;DHT22;26970;49.900;10.774;2023-04-26T07:16:07;6.80;99.90
39503;DHT22;26970;49.900;10.774;2023-04-26T07:18:33;6.90;99.90
39503;DHT22;26970;49.900;10.774;2023-04-26T07:20:59;7.00;99.90
39503;DHT22;26970;49.900;10.774;2023-04-26T07:23:24;7.20;99.90
39503;DHT22;26970;49.900;10.774;2023-04-26T07:25:50;7.30;99.90
39503;DHT22;26970;49.900;10.774;2023-04-26T07:28:15;7.40;99.90
39503;DHT22;26970;49.900;10.774;2023-04-26T07:30:41;7.70;99.90
39503;DHT22;26970;49.900;10.774;2023-04-26T07:33:07;7.80;99.90
39503;DHT22;26970;49.900;10.774;2023-04-26T07:35:32;7.80;99.90
39503;DHT22;26970;49.900;10.774;2023-04-26T07:38:00;7.90;99.90
39503;DHT22;26970;49.900;10.774;2023-04-26T07:40:25;7.80;99.90
39503;DHT22;26970;49.900;10.774;2023-04-26T07:42:53;7.70;99.90
39503;DHT22;26970;49.900;10.774;2023-04-26T07:45:19;7.70;99.90
39503;DHT22;26970;49.900;10.774;2023-04-26T07:47:45;7.90;99.90
39503;DHT22;26970;49.900;10.774;2023-04-26T07:50:10;8.00;99.90
39503;DHT22;26970;49.900;10.774;2023-04-26T07:52:36;8.20;99.90
39503;DHT22;26970;49.900;10.774;2023-04-26T07:55:02;8.20;99.90
39503;DHT22;26970;49.900;10.774;2023-04-26T07:57:28;8.00;99.90
39503;DHT22;26970;49.900;10.774;2023-04-26T07:59:53;7.90;99.90
39503;DHT22;26970;49.900;10.774;2023-04-26T08:02:19;7.60;99.90
39503;DHT22;26970;49.900;10.774;2023-04-26T08:04:48;8.10;99.90
39503;DHT22;26970;49.900;10.774;2023-04-26T08:07:19;8.70;99.90
39503;DHT22;26970;49.900;10.774;2023-04-26T08:09:45;8.70;99.90
39503;DHT22;26970;49.900;10.774;2023-04-26T08:12:12;8.80;99.90
39503;DHT22;26970;49.900;10.774;2023-04-26T08:14:38;9.00;99.90
39503;DHT22;26970;49.900;10.774;2023-04-26T08:17:04;8.90;99.90
39503;DHT22;26970;49.900;10.774;2023-04-26T08:19:31;8.60;99.90
39503;DHT22;26970;49.900;10.774;2023-04-26T08:21:57;8.40;99.90
39503;DHT22;26970;49.900;10.774;2023-04-26T08:24:23;8.60;99.90
39503;DHT22;26970;49.900;10.774;2023-04-26T08:26:49;8.70;99.90
39503;DHT22;26970;49.900;10.774;2023-04-26T08:29:14;8.70;99.90
39503;DHT22;26970;49.900;10.774;2023-04-26T08:31:40;9.00;99.90
39503;DHT22;26970;49.900;10.774;2023-04-26T08:34:06;9.20;99.90
39503;DHT22;26970;49.900;10.774;2023-04-26T08:36:39;9.30;99.90
39503;DHT22;26970;49.900;10.774;2023-04-26T08:39:06;9.20;99.90
39503;DHT22;26970;49.900;10.774;2023-04-26T08:41:36;9.30;99.90
39503;DHT22;26970;49.900;10.774;2023-04-26T08:44:04;8.70;99.90
39503;DHT22;26970;49.900;10.774;2023-04-26T08:46:43;8.00;99.90
39503;DHT22;26970;49.900;10.774;2023-04-26T08:49:45;7.80;99.90
39503;DHT22;26970;49.900;10.774;2023-04-26T08:52:13;7.70;99.90
39503;DHT22;26970;49.900;10.774;2023-04-26T08:54:41;7.50;99.90
39503;DHT22;26970;49.900;10.774;2023-04-26T08:57:07;7.60;99.90
39503;DHT22;26970;49.900;10.774;2023-04-26T08:59:35;7.50;99.90
39503;DHT22;26970;49.900;10.774;2023-04-26T09:02:02;7.50;99.90
39503;DHT22;26970;49.900;10.774;2023-04-26T09:04:28;7.50;99.90
39503;DHT22;26970;49.900;10.774;2023-04-26T09:07:01;7.70;99.90
39503;DHT22;26970;49.900;10.774;2023-04-26T09:09:28;7.60;99.90
39503;DHT22;26970;49.900;10.774;2023-04-26T09:11:59;7.60;99.90
39503;DHT22;26970;49.900;10.774;2023-04-26T09:14:25;7.60;99.90
39503;DHT22;26970;49.900;10.774;2023-04-26T09:16:52;7.70;99.90
39503;DHT22;26970;49.900;10.774;2023-04-26T09:19:39;8.30;99.90
39503;DHT22;26970;49.900;10.774;2023-04-26T09:22:08;9.10;99.90
39503;DHT22;26970;49.900;10.774;2023-04-26T09:24:48;9.30;99.90
39503;DHT22;26970;49.900;10.774;2023-04-26T09:27:15;9.20;99.90
39503;DHT22;26970;49.900;10.774;2023-04-26T09:30:06;9.00;99.90
39503;DHT22;26970;49.900;10.774;2023-04-26T09:32:57;9.40;99.90
39503;DHT22;26970;49.900;10.774;2023-04-26T09:38:06;9.20;99.90
39503;DHT22;26970;49.900;10.774;2023-04-26T09:40:36;9.40;99.90
39503;DHT22;26970;49.900;10.774;2023-04-26T09:43:08;9.50;99.90
39503;DHT22;26970;49.900;10.774;2023-04-26T09:45:56;9.70;99.90
39503;DHT22;26970;49.900;10.774;2023-04-26T09:48:26;10.10;99.90
39503;DHT22;26970;49.900;10.774;2023-04-26T09:51:07;9.80;98.00
39503;DHT22;26970;49.900;10.774;2023-04-26T09:53:35;9.40;97.80
39503;DHT22;26970;49.900;10.774;2023-04-26T09:56:17;9.40;99.40
39503;DHT22;26970;49.900;10.774;2023-04-26T10:01:17;9.60;99.90
39503;DHT22;26970;49.900;10.774;2023-04-26T10:03:44;9.50;98.60
39503;DHT22;26970;49.900;10.774;2023-04-26T10:06:11;9.50;99.10
39503;DHT22;26970;49.900;10.774;2023-04-26T10:08:36;9.50;98.10
39503;DHT22;26970;49.900;10.774;2023-04-26T10:11:03;9.90;99.90
39503;DHT22;26970;49.900;10.774;2023-04-26T10:13:32;10.40;99.90
39503;DHT22;26970;49.900;10.774;2023-04-26T10:16:02;10.70;97.30
39503;DHT22;26970;49.900;10.774;2023-04-26T10:18:30;10.70;98.00
39503;DHT22;26970;49.900;10.774;2023-04-26T10:21:02;10.60;96.90
39503;DHT22;26970;49.900;10.774;2023-04-26T10:23:30;10.20;99.90
39503;DHT22;26970;49.900;10.774;2023-04-26T10:25:57;9.90;99.30
39503;DHT22;26970;49.900;10.774;2023-04-26T10:31:13;9.70;99.90
39503;DHT22;26970;49.900;10.774;2023-04-26T10:33:39;9.20;99.90
39503;DHT22;26970;49.900;10.774;2023-04-26T10:36:09;8.90;98.70
39503;DHT22;26970;49.900;10.774;2023-04-26T10:38:40;8.80;99.90
39503;DHT22;26970;49.900;10.774;2023-04-26T10:41:28;8.80;99.90
39503;DHT22;26970;49.900;10.774;2023-04-26T10:43:55;8.70;99.90
39503;DHT22;26970;49.900;10.774;2023-04-26T10:46:36;8.70;99.90
39503;DHT22;26970;49.900;10.774;2023-04-26T10:49:16;8.80;99.90
39503;DHT22;26970;49.900;10.774;2023-04-26T10:52:07;9.10;99.90
39503;DHT22;26970;49.900;10.774;2023-04-26T10:54:57;9.20;99.90
39503;DHT22;26970;49.900;10.774;2023-04-26T10:57:45;9.20;99.90
39503;DHT22;26970;49.900;10.774;2023-04-26T11:00:17;9.70;99.90
39503;DHT22;26970;49.900;10.774;2023-04-26T11:02:46;10.10;99.90
39503;DHT22;26970;49.900;10.774;2023-04-26T11:05:50;9.90;98.30
39503;DHT22;26970;49.900;10.774;2023-04-26T11:08:19;9.60;99.90
39503;DHT22;26970;49.900;10.774;2023-04-26T11:10:50;9.80;99.90
39503;DHT22;26970;49.900;10.774;2023-04-26T11:13:19;10.40;99.90
39503;DHT22;26970;49.900;10.774;2023-04-26T11:15:45;10.80;97.30
39503;DHT22;26970;49.900;10.774;2023-04-26T11:18:11;10.50;97.90
39503;DHT22;26970;49.900;10.774;2023-04-26T11:20:36;10.40;98.20
39503;DHT22;26970;49.900;10.774;2023-04-26T11:23:02;10.50;98.50
39503;DHT22;26970;49.900;10.774;2023-04-26T11:25:31;10.80;97.90
39503;DHT22;26970;49.900;10.774;2023-04-26T11:28:01;10.60;96.60
39503;DHT22;26970;49.900;10.774;2023-04-26T11:30:28;10.30;95.90
39503;DHT22;26970;49.900;10.774;2023-04-26T11:32:55;10.20;96.90
39503;DHT22;26970;49.900;10.774;2023-04-26T11:35:21;10.00;97.80
39503;DHT22;26970;49.900;10.774;2023-04-26T11:37:49;10.00;97.10
39503;DHT22;26970;49.900;10.774;2023-04-26T11:40:16;10.40;98.60
39503;DHT22;26970;49.900;10.774;2023-04-26T11:42:43;10.30;96.10
39503;DHT22;26970;49.900;10.774;2023-04-26T11:45:09;10.60;99.00
39503;DHT22;26970;49.900;10.774;2023-04-26T11:47:36;11.00;97.80
39503;DHT22;26970;49.900;10.774;2023-04-26T11:50:02;11.00;96.50
39503;DHT22;26970;49.900;10.774;2023-04-26T11:52:28;11.30;96.60
39503;DHT22;26970;49.900;10.774;2023-04-26T11:55:04;11.50;94.30
39503;DHT22;26970;49.900;10.774;2023-04-26T11:57:31;11.90;97.30
39503;DHT22;26970;49.900;10.774;2023-04-26T12:00:28;11.70;97.00
39503;DHT22;26970;49.900;10.774;2023-04-26T12:02:54;11.70;95.00
39503;DHT22;26970;49.900;10.774;2023-04-26T12:05:28;11.40;92.80
39503;DHT22;26970;49.900;10.774;2023-04-26T12:07:58;11.00;93.10
39503;DHT22;26970;49.900;10.774;2023-04-26T12:10:24;10.60;93.50
39503;DHT22;26970;49.900;10.774;2023-04-26T12:12:52;10.60;94.60
39503;DHT22;26970;49.900;10.774;2023-04-26T12:15:21;10.90;94.60
39503;DHT22;26970;49.900;10.774;2023-04-26T12:17:51;10.90;94.30
39503;DHT22;26970;49.900;10.774;2023-04-26T12:20:17;10.90;93.70
39503;DHT22;26970;49.900;10.774;2023-04-26T12:23:07;10.40;94.30
39503;DHT22;26970;49.900;10.774;2023-04-26T12:25:35;10.20;94.90
39503;DHT22;26970;49.900;10.774;2023-04-26T12:28:03;10.20;95.30
39503;DHT22;26970;49.900;10.774;2023-04-26T12:30:29;10.20;96.50
39503;DHT22;26970;49.900;10.774;2023-04-26T12:32:55;10.50;96.50
39503;DHT22;26970;49.900;10.774;2023-04-26T12:35:22;10.70;96.80
39503;DHT22;26970;49.900;10.774;2023-04-26T12:37:48;10.80;96.00
39503;DHT22;26970;49.900;10.774;2023-04-26T12:40:15;10.90;94.90
39503;DHT22;26970;49.900;10.774;2023-04-26T12:42:41;11.00;96.60
39503;DHT22;26970;49.900;10.774;2023-04-26T12:45:06;10.90;95.60
39503;DHT22;26970;49.900;10.774;2023-04-26T12:47:32;10.80;95.90
39503;DHT22;26970;49.900;10.774;2023-04-26T12:49:58;10.50;94.70
39503;DHT22;26970;49.900;10.774;2023-04-26T12:52:26;10.20;94.70
39503;DHT22;26970;49.900;10.774;2023-04-26T12:54:52;10.40;96.30
39503;DHT22;26970;49.900;10.774;2023-04-26T12:57:18;10.70;95.90
39503;DHT22;26970;49.900;10.774;2023-04-26T12:59:45;10.60;97.10
39503;DHT22;26970;49.900;10.774;2023-04-26T13:02:11;11.00;97.20
39503;DHT22;26970;49.900;10.774;2023-04-26T13:04:36;11.20;95.40
39503;DHT22;26970;49.900;10.774;2023-04-26T13:07:03;11.50;97.40
39503;DHT22;26970;49.900;10.774;2023-04-26T13:09:28;11.40;96.50
39503;DHT22;26970;49.900;10.774;2023-04-26T13:11:54;11.60;96.60
39503;DHT22;26970;49.900;10.774;2023-04-26T13:14:19;11.40;96.30
39503;DHT22;26970;49.900;10.774;2023-04-26T13:16:47;11.30;96.10
39503;DHT22;26970;49.900;10.774;2023-04-26T13:19:13;11.30;94.70
39503;DHT22;26970;49.900;10.774;2023-04-26T13:21:39;10.90;95.20
39503;DHT22;26970;49.900;10.774;2023-04-26T13:24:05;10.60;95.00
39503;DHT22;26970;49.900;10.774;2023-04-26T13:26:31;10.60;94.00
39503;DHT22;26970;49.900;10.774;2023-04-26T13:28:56;10.60;96.10
39503;DHT22;26970;49.900;10.774;2023-04-26T13:31:22;10.70;95.40
39503;DHT22;26970;49.900;10.774;2023-04-26T13:33:48;10.80;95.40
39503;DHT22;26970;49.900;10.774;2023-04-26T13:36:14;10.90;95.10
39503;DHT22;26970;49.900;10.774;2023-04-26T13:38:41;10.80;94.50
39503;DHT22;26970;49.900;10.774;2023-04-26T13:41:07;10.60;94.60
39503;DHT22;26970;49.900;10.774;2023-04-26T13:43:33;10.70;96.40
39503;DHT22;26970;49.900;10.774;2023-04-26T13:45:59;10.70;94.70
39503;DHT22;26970;49.900;10.774;2023-04-26T13:48:25;10.70;95.10
39503;DHT22;26970;49.900;10.774;2023-04-26T13:50:51;10.60;95.40
39503;DHT22;26970;49.900;10.774;2023-04-26T13:53:17;10.40;96.10
39503;DHT22;26970;49.900;10.774;2023-04-26T13:55:44;10.00;95.40
39503;DHT22;26970;49.900;10.774;2023-04-26T13:58:10;9.80;95.10
39503;DHT22;26970;49.900;10.774;2023-04-26T14:00:35;9.60;95.70
39503;DHT22;26970;49.900;10.774;2023-04-26T14:03:01;9.60;96.10
39503;DHT22;26970;49.900;10.774;2023-04-26T14:05:27;9.70;96.30
39503;DHT22;26970;49.900;10.774;2023-04-26T14:07:52;9.70;95.80
39503;DHT22;26970;49.900;10.774;2023-04-26T14:10:19;9.70;96.00
39503;DHT22;26970;49.900;10.774;2023-04-26T14:12:45;9.80;96.10
39503;DHT22;26970;49.900;10.774;2023-04-26T14:15:11;10.00;97.30
39503;DHT22;26970;49.900;10.774;2023-04-26T14:17:37;10.20;97.40
39503;DHT22;26970;49.900;10.774;2023-04-26T14:20:02;10.40;95.50
39503;DHT22;26970;49.900;10.774;2023-04-26T14:22:28;10.70;96.80
39503;DHT22;26970;49.900;10.774;2023-04-26T14:24:54;11.00;97.90
39503;DHT22;26970;49.900;10.774;2023-04-26T14:27:19;11.00;97.10
39503;DHT22;26970;49.900;10.774;2023-04-26T14:29:45;10.90;96.70
39503;DHT22;26970;49.900;10.774;2023-04-26T14:32:10;10.70;96.40
39503;DHT22;26970;49.900;10.774;2023-04-26T14:34:36;10.40;94.80
39503;DHT22;26970;49.900;10.774;2023-04-26T14:37:06;10.40;96.30
39503;DHT22;26970;49.900;10.774;2023-04-26T14:39:32;10.40;96.70
39503;DHT22;26970;49.900;10.774;2023-04-26T14:41:58;10.60;97.40
39503;DHT22;26970;49.900;10.774;2023-04-26T14:44:24;10.70;97.40
39503;DHT22;26970;49.900;10.774;2023-04-26T14:46:49;10.70;95.70
39503;DHT22;26970;49.900;10.774;2023-04-26T14:49:15;10.70;95.40
39503;DHT22;26970;49.900;10.774;2023-04-26T14:51:41;10.60;95.10
39503;DHT22;26970;49.900;10.774;2023-04-26T14:54:06;10.40;96.00
39503;DHT22;26970;49.900;10.774;2023-04-26T14:56:35;10.30;94.60
39503;DHT22;26970;49.900;10.774;2023-04-26T14:59:01;10.30;96.00
39503;DHT22;26970;49.900;10.774;2023-04-26T15:01:28;10.30;95.20
39503;DHT22;26970;49.900;10.774;2023-04-26T15:03:54;10.30;95.20
39503;DHT22;26970;49.900;10.774;2023-04-26T15:06:19;10.50;95.10
39503;DHT22;26970;49.900;10.774;2023-04-26T15:08:45;10.50;96.00
39503;DHT22;26970;49.900;10.774;2023-04-26T15:11:11;10.40;94.70
39503;DHT22;26970;49.900;10.774;2023-04-26T15:13:36;10.30;95.10
39503;DHT22;26970;49.900;10.774;2023-04-26T15:16:06;10.50;95.50
39503;DHT22;26970;49.900;10.774;2023-04-26T15:18:32;10.40;96.00
39503;DHT22;26970;49.900;10.774;2023-04-26T15:20:58;10.60;95.70
39503;DHT22;26970;49.900;10.774;2023-04-26T15:23:24;10.70;96.10
39503;DHT22;26970;49.900;10.774;2023-04-26T15:25:50;10.70;94.60
39503;DHT22;26970;49.900;10.774;2023-04-26T15:28:16;10.70;94.30
39503;DHT22;26970;49.900;10.774;2023-04-26T15:30:41;10.80;95.50
39503;DHT22;26970;49.900;10.774;2023-04-26T15:33:07;10.80;95.10
39503;DHT22;26970;49.900;10.774;2023-04-26T15:35:33;10.80;94.40